sensor_id;sensor_type;location;lat;lon;timestamp;temperature;humidity
70271;SHT31;57680;54.292;18.598;2022-07-21T00:00:20;18.26;83.81
70271;SHT31;57680;54.292;18.598;2022-07-21T00:02:46;18.16;84.14
70271;SHT31;57680;54.292;18.598;2022-07-21T00:05:13;18.18;84.30
70271;SHT31;57680;54.292;18.598;2022-07-21T00:07:39;18.14;84.62
70271;SHT31;57680;54.292;18.598;2022-07-21T00:10:05;18.17;85.32
70271;SHT31;57680;54.292;18.598;2022-07-21T00:12:31;18.23;85.92
70271;SHT31;57680;54.292;18.598;2022-07-21T00:14:56;18.37;85.66
70271;SHT31;57680;54.292;18.598;2022-07-21T00:17:22;18.45;85.24
70271;SHT31;57680;54.292;18.598;2022-07-21T00:19:47;18.52;84.75
70271;SHT31;57680;54.292;18.598;2022-07-21T00:22:13;18.47;84.46
70271;SHT31;57680;54.292;18.598;2022-07-21T00:24:38;18.50;84.69
70271;SHT31;57680;54.292;18.598;2022-07-21T00:27:04;18.52;84.65
70271;SHT31;57680;54.292;18.598;2022-07-21T00:29:29;18.50;84.56
70271;SHT31;57680;54.292;18.598;2022-07-21T00:31:55;18.55;84.44
70271;SHT31;57680;54.292;18.598;2022-07-21T00:34:20;18.52;84.40
70271;SHT31;57680;54.292;18.598;2022-07-21T00:36:46;18.50;84.57
70271;SHT31;57680;54.292;18.598;2022-07-21T00:39:11;18.51;84.74
70271;SHT31;57680;54.292;18.598;2022-07-21T00:41:37;18.47;84.98
70271;SHT31;57680;54.292;18.598;2022-07-21T00:44:02;18.47;85.22
70271;SHT31;57680;54.292;18.598;2022-07-21T00:46:28;18.47;85.03
70271;SHT31;57680;54.292;18.598;2022-07-21T00:48:53;18.45;85.07
70271;SHT31;57680;54.292;18.598;2022-07-21T00:51:19;18.47;85.24
70271;SHT31;57680;54.292;18.598;2022-07-21T00:53:45;18.43;85.14
70271;SHT31;57680;54.292;18.598;2022-07-21T00:56:11;18.38;85.12
70271;SHT31;57680;54.292;18.598;2022-07-21T00:58:39;18.34;85.39
70271;SHT31;57680;54.292;18.598;2022-07-21T01:01:05;18.31;85.63
70271;SHT31;57680;54.292;18.598;2022-07-21T01:03:30;18.29;85.75
70271;SHT31;57680;54.292;18.598;2022-07-21T01:05:57;18.26;85.71
70271;SHT31;57680;54.292;18.598;2022-07-21T01:08:23;18.27;86.10
70271;SHT31;57680;54.292;18.598;2022-07-21T01:10:49;18.29;86.02
70271;SHT31;57680;54.292;18.598;2022-07-21T01:13:14;18.29;85.87
70271;SHT31;57680;54.292;18.598;2022-07-21T01:15:40;18.23;85.81
70271;SHT31;57680;54.292;18.598;2022-07-21T01:18:05;18.21;85.95
70271;SHT31;57680;54.292;18.598;2022-07-21T01:20:34;18.17;86.17
70271;SHT31;57680;54.292;18.598;2022-07-21T01:23:03;18.09;86.22
70271;SHT31;57680;54.292;18.598;2022-07-21T01:25:28;18.03;86.40
70271;SHT31;57680;54.292;18.598;2022-07-21T01:27:54;17.93;86.64
70271;SHT31;57680;54.292;18.598;2022-07-21T01:30:20;17.85;87.05
70271;SHT31;57680;54.292;18.598;2022-07-21T01:32:45;17.76;87.23
70271;SHT31;57680;54.292;18.598;2022-07-21T01:35:14;17.76;87.60
70271;SHT31;57680;54.292;18.598;2022-07-21T01:37:45;17.76;87.81
70271;SHT31;57680;54.292;18.598;2022-07-21T01:40:12;17.76;87.78
70271;SHT31;57680;54.292;18.598;2022-07-21T01:42:56;17.75;87.52
70271;SHT31;57680;54.292;18.598;2022-07-21T01:45:22;17.69;87.68
70271;SHT31;57680;54.292;18.598;2022-07-21T01:47:48;17.66;87.65
70271;SHT31;57680;54.292;18.598;2022-07-21T01:50:14;17.61;87.97
70271;SHT31;57680;54.292;18.598;2022-07-21T01:52:39;17.63;88.28
70271;SHT31;57680;54.292;18.598;2022-07-21T01:55:05;17.72;88.51
70271;SHT31;57680;54.292;18.598;2022-07-21T01:57:31;17.76;88.12
70271;SHT31;57680;54.292;18.598;2022-07-21T01:59:57;17.76;87.88
70271;SHT31;57680;54.292;18.598;2022-07-21T02:02:22;17.76;88.49
70271;SHT31;57680;54.292;18.598;2022-07-21T02:04:48;17.82;88.04
70271;SHT31;57680;54.292;18.598;2022-07-21T02:07:15;17.82;88.03
70271;SHT31;57680;54.292;18.598;2022-07-21T02:09:41;17.85;87.87
70271;SHT31;57680;54.292;18.598;2022-07-21T02:12:07;17.89;87.56
70271;SHT31;57680;54.292;18.598;2022-07-21T02:14:32;17.85;87.66
70271;SHT31;57680;54.292;18.598;2022-07-21T02:16:58;17.83;87.77
70271;SHT31;57680;54.292;18.598;2022-07-21T02:19:23;17.79;87.83
70271;SHT31;57680;54.292;18.598;2022-07-21T02:21:49;17.81;87.94
70271;SHT31;57680;54.292;18.598;2022-07-21T02:24:14;17.78;87.76
70271;SHT31;57680;54.292;18.598;2022-07-21T02:26:40;17.75;88.07
70271;SHT31;57680;54.292;18.598;2022-07-21T02:29:06;17.72;87.81
70271;SHT31;57680;54.292;18.598;2022-07-21T02:31:31;17.73;87.81
70271;SHT31;57680;54.292;18.598;2022-07-21T02:33:57;17.73;87.78
70271;SHT31;57680;54.292;18.598;2022-07-21T02:36:22;17.75;87.72
70271;SHT31;57680;54.292;18.598;2022-07-21T02:38:48;17.81;87.64
70271;SHT31;57680;54.292;18.598;2022-07-21T02:41:16;17.81;87.51
70271;SHT31;57680;54.292;18.598;2022-07-21T02:43:41;17.85;87.04
70271;SHT31;57680;54.292;18.598;2022-07-21T02:46:06;17.81;87.10
70271;SHT31;57680;54.292;18.598;2022-07-21T02:48:32;17.76;87.03
70271;SHT31;57680;54.292;18.598;2022-07-21T02:50:58;17.72;87.10
70271;SHT31;57680;54.292;18.598;2022-07-21T02:53:23;17.71;87.08
70271;SHT31;57680;54.292;18.598;2022-07-21T02:55:51;17.71;87.13
70271;SHT31;57680;54.292;18.598;2022-07-21T02:58:25;17.72;87.16
70271;SHT31;57680;54.292;18.598;2022-07-21T03:03:23;17.87;86.70
70271;SHT31;57680;54.292;18.598;2022-07-21T03:05:49;17.96;86.37
70271;SHT31;57680;54.292;18.598;2022-07-21T03:08:15;18.07;86.03
70271;SHT31;57680;54.292;18.598;2022-07-21T03:10:42;18.17;85.77
70271;SHT31;57680;54.292;18.598;2022-07-21T03:13:08;18.29;85.43
70271;SHT31;57680;54.292;18.598;2022-07-21T03:15:34;18.43;84.54
70271;SHT31;57680;54.292;18.598;2022-07-21T03:18:00;18.54;84.10
70271;SHT31;57680;54.292;18.598;2022-07-21T03:20:27;18.71;83.45
70271;SHT31;57680;54.292;18.598;2022-07-21T03:22:53;18.92;83.19
70271;SHT31;57680;54.292;18.598;2022-07-21T03:25:19;19.16;82.12
70271;SHT31;57680;54.292;18.598;2022-07-21T03:27:46;19.34;81.46
70271;SHT31;57680;54.292;18.598;2022-07-21T03:30:13;19.54;80.82
70271;SHT31;57680;54.292;18.598;2022-07-21T03:32:39;19.74;80.34
70271;SHT31;57680;54.292;18.598;2022-07-21T03:35:06;20.01;79.43
70271;SHT31;57680;54.292;18.598;2022-07-21T03:37:32;20.22;78.72
70271;SHT31;57680;54.292;18.598;2022-07-21T03:39:58;20.53;77.75
70271;SHT31;57680;54.292;18.598;2022-07-21T03:42:23;20.84;76.39
70271;SHT31;57680;54.292;18.598;2022-07-21T03:44:49;21.13;75.19
70271;SHT31;57680;54.292;18.598;2022-07-21T03:47:15;21.34;73.74
70271;SHT31;57680;54.292;18.598;2022-07-21T03:49:40;21.61;73.71
70271;SHT31;57680;54.292;18.598;2022-07-21T03:52:06;21.88;72.57
70271;SHT31;57680;54.292;18.598;2022-07-21T03:54:31;22.17;70.77
70271;SHT31;57680;54.292;18.598;2022-07-21T03:56:57;22.50;70.81
70271;SHT31;57680;54.292;18.598;2022-07-21T03:59:22;22.83;69.38
70271;SHT31;57680;54.292;18.598;2022-07-21T04:01:48;23.01;68.96
70271;SHT31;57680;54.292;18.598;2022-07-21T04:04:13;23.25;68.54
70271;SHT31;57680;54.292;18.598;2022-07-21T04:06:39;23.33;66.61
70271;SHT31;57680;54.292;18.598;2022-07-21T04:09:04;23.49;65.25
70271;SHT31;57680;54.292;18.598;2022-07-21T04:11:30;23.76;65.96
70271;SHT31;57680;54.292;18.598;2022-07-21T04:13:57;24.04;65.01
70271;SHT31;57680;54.292;18.598;2022-07-21T04:16:22;24.20;64.69
70271;SHT31;57680;54.292;18.598;2022-07-21T04:18:48;24.37;64.12
70271;SHT31;57680;54.292;18.598;2022-07-21T04:21:13;24.62;63.31
70271;SHT31;57680;54.292;18.598;2022-07-21T04:23:39;24.82;62.71
70271;SHT31;57680;54.292;18.598;2022-07-21T04:26:05;25.12;62.10
70271;SHT31;57680;54.292;18.598;2022-07-21T04:28:30;25.27;61.15
70271;SHT31;57680;54.292;18.598;2022-07-21T04:30:56;25.44;60.65
70271;SHT31;57680;54.292;18.598;2022-07-21T04:33:21;25.56;60.44
70271;SHT31;57680;54.292;18.598;2022-07-21T04:35:47;25.74;59.36
70271;SHT31;57680;54.292;18.598;2022-07-21T04:38:12;26.02;59.24
70271;SHT31;57680;54.292;18.598;2022-07-21T04:40:39;26.29;57.76
70271;SHT31;57680;54.292;18.598;2022-07-21T04:43:05;26.50;57.53
70271;SHT31;57680;54.292;18.598;2022-07-21T04:45:31;26.64;56.75
70271;SHT31;57680;54.292;18.598;2022-07-21T04:47:56;26.83;56.68
70271;SHT31;57680;54.292;18.598;2022-07-21T04:50:25;27.17;55.90
70271;SHT31;57680;54.292;18.598;2022-07-21T04:52:51;27.49;54.62
70271;SHT31;57680;54.292;18.598;2022-07-21T04:55:17;27.69;53.93
70271;SHT31;57680;54.292;18.598;2022-07-21T04:57:46;27.88;52.98
70271;SHT31;57680;54.292;18.598;2022-07-21T05:00:17;28.03;52.79
70271;SHT31;57680;54.292;18.598;2022-07-21T05:02:44;28.21;52.30
70271;SHT31;57680;54.292;18.598;2022-07-21T05:05:10;28.27;51.81
70271;SHT31;57680;54.292;18.598;2022-07-21T05:07:36;28.37;51.31
70271;SHT31;57680;54.292;18.598;2022-07-21T05:10:10;28.53;50.93
70271;SHT31;57680;54.292;18.598;2022-07-21T05:12:36;28.68;50.65
70271;SHT31;57680;54.292;18.598;2022-07-21T05:15:06;28.72;51.14
70271;SHT31;57680;54.292;18.598;2022-07-21T05:17:32;28.95;50.45
70271;SHT31;57680;54.292;18.598;2022-07-21T05:19:59;29.11;49.73
70271;SHT31;57680;54.292;18.598;2022-07-21T05:22:24;29.25;49.03
70271;SHT31;57680;54.292;18.598;2022-07-21T05:24:50;29.26;49.60
70271;SHT31;57680;54.292;18.598;2022-07-21T05:27:16;29.29;49.31
70271;SHT31;57680;54.292;18.598;2022-07-21T05:29:41;29.42;49.32
70271;SHT31;57680;54.292;18.598;2022-07-21T05:32:07;29.73;49.24
70271;SHT31;57680;54.292;18.598;2022-07-21T05:34:33;29.91;48.90
70271;SHT31;57680;54.292;18.598;2022-07-21T05:36:58;29.97;48.33
70271;SHT31;57680;54.292;18.598;2022-07-21T05:39:24;30.00;47.60
70271;SHT31;57680;54.292;18.598;2022-07-21T05:41:49;30.01;47.31
70271;SHT31;57680;54.292;18.598;2022-07-21T05:44:15;30.05;47.24
70271;SHT31;57680;54.292;18.598;2022-07-21T05:46:40;30.20;47.18
70271;SHT31;57680;54.292;18.598;2022-07-21T05:49:06;30.39;46.08
70271;SHT31;57680;54.292;18.598;2022-07-21T05:51:31;30.52;46.69
70271;SHT31;57680;54.292;18.598;2022-07-21T05:53:57;30.68;46.99
70271;SHT31;57680;54.292;18.598;2022-07-21T05:56:22;30.75;47.00
70271;SHT31;57680;54.292;18.598;2022-07-21T05:58:48;30.99;45.64
70271;SHT31;57680;54.292;18.598;2022-07-21T06:01:13;31.14;44.85
70271;SHT31;57680;54.292;18.598;2022-07-21T06:03:44;31.23;44.73
70271;SHT31;57680;54.292;18.598;2022-07-21T06:06:11;31.40;45.31
70271;SHT31;57680;54.292;18.598;2022-07-21T06:08:39;31.57;43.78
70271;SHT31;57680;54.292;18.598;2022-07-21T06:11:07;31.75;43.03
70271;SHT31;57680;54.292;18.598;2022-07-21T06:13:32;31.82;41.92
70271;SHT31;57680;54.292;18.598;2022-07-21T06:15:58;31.99;42.04
70271;SHT31;57680;54.292;18.598;2022-07-21T06:18:23;32.08;41.37
70271;SHT31;57680;54.292;18.598;2022-07-21T06:20:49;32.37;41.10
70271;SHT31;57680;54.292;18.598;2022-07-21T06:23:15;32.57;41.03
70271;SHT31;57680;54.292;18.598;2022-07-21T06:25:41;32.69;40.78
70271;SHT31;57680;54.292;18.598;2022-07-21T06:28:07;32.67;40.38
70271;SHT31;57680;54.292;18.598;2022-07-21T06:30:32;32.77;40.26
70271;SHT31;57680;54.292;18.598;2022-07-21T06:32:58;32.83;39.73
70271;SHT31;57680;54.292;18.598;2022-07-21T06:35:24;32.88;39.78
70271;SHT31;57680;54.292;18.598;2022-07-21T06:37:49;32.84;39.96
70271;SHT31;57680;54.292;18.598;2022-07-21T06:40:15;32.59;39.74
70271;SHT31;57680;54.292;18.598;2022-07-21T06:42:41;32.39;39.32
70271;SHT31;57680;54.292;18.598;2022-07-21T06:45:07;32.09;39.81
70271;SHT31;57680;54.292;18.598;2022-07-21T06:47:33;31.98;40.28
70271;SHT31;57680;54.292;18.598;2022-07-21T06:49:58;31.81;40.39
70271;SHT31;57680;54.292;18.598;2022-07-21T06:52:30;31.77;40.66
70271;SHT31;57680;54.292;18.598;2022-07-21T06:54:56;31.72;41.32
70271;SHT31;57680;54.292;18.598;2022-07-21T06:57:21;31.61;41.74
70271;SHT31;57680;54.292;18.598;2022-07-21T06:59:47;31.37;41.32
70271;SHT31;57680;54.292;18.598;2022-07-21T07:02:13;31.43;42.47
70271;SHT31;57680;54.292;18.598;2022-07-21T07:04:38;31.37;42.23
70271;SHT31;57680;54.292;18.598;2022-07-21T07:07:05;31.38;43.02
70271;SHT31;57680;54.292;18.598;2022-07-21T07:09:31;31.34;42.98
70271;SHT31;57680;54.292;18.598;2022-07-21T07:11:57;31.35;42.57
70271;SHT31;57680;54.292;18.598;2022-07-21T07:14:33;31.26;42.22
70271;SHT31;57680;54.292;18.598;2022-07-21T07:16:59;31.13;42.48
70271;SHT31;57680;54.292;18.598;2022-07-21T07:19:26;31.09;43.10
70271;SHT31;57680;54.292;18.598;2022-07-21T07:21:52;30.93;43.45
70271;SHT31;57680;54.292;18.598;2022-07-21T07:24:17;30.62;44.46
70271;SHT31;57680;54.292;18.598;2022-07-21T07:26:43;30.39;44.36
70271;SHT31;57680;54.292;18.598;2022-07-21T07:29:09;30.35;45.53
70271;SHT31;57680;54.292;18.598;2022-07-21T07:31:35;30.38;45.28
70271;SHT31;57680;54.292;18.598;2022-07-21T07:34:01;30.44;44.97
70271;SHT31;57680;54.292;18.598;2022-07-21T07:36:28;30.48;45.26
70271;SHT31;57680;54.292;18.598;2022-07-21T07:38:54;30.48;45.44
70271;SHT31;57680;54.292;18.598;2022-07-21T07:41:21;30.49;45.89
70271;SHT31;57680;54.292;18.598;2022-07-21T07:43:48;30.52;45.63
70271;SHT31;57680;54.292;18.598;2022-07-21T07:46:14;30.61;45.34
70271;SHT31;57680;54.292;18.598;2022-07-21T07:48:41;30.65;45.16
70271;SHT31;57680;54.292;18.598;2022-07-21T07:51:07;30.80;44.45
70271;SHT31;57680;54.292;18.598;2022-07-21T07:53:34;30.92;45.50
70271;SHT31;57680;54.292;18.598;2022-07-21T07:56:00;31.04;44.52
70271;SHT31;57680;54.292;18.598;2022-07-21T07:58:26;31.12;45.28
70271;SHT31;57680;54.292;18.598;2022-07-21T08:00:52;31.26;44.96
70271;SHT31;57680;54.292;18.598;2022-07-21T08:03:18;31.38;43.75
70271;SHT31;57680;54.292;18.598;2022-07-21T08:05:44;31.45;45.06
70271;SHT31;57680;54.292;18.598;2022-07-21T08:08:09;31.51;44.13
70271;SHT31;57680;54.292;18.598;2022-07-21T08:10:35;31.61;44.02
70271;SHT31;57680;54.292;18.598;2022-07-21T08:13:01;31.65;43.58
70271;SHT31;57680;54.292;18.598;2022-07-21T08:15:27;31.68;43.04
70271;SHT31;57680;54.292;18.598;2022-07-21T08:17:52;31.65;43.27
70271;SHT31;57680;54.292;18.598;2022-07-21T08:20:18;31.86;43.70
70271;SHT31;57680;54.292;18.598;2022-07-21T08:22:43;31.86;42.00
70271;SHT31;57680;54.292;18.598;2022-07-21T08:25:09;31.91;43.15
70271;SHT31;57680;54.292;18.598;2022-07-21T08:27:34;32.02;42.43
70271;SHT31;57680;54.292;18.598;2022-07-21T08:30:00;32.22;42.82
70271;SHT31;57680;54.292;18.598;2022-07-21T08:32:26;32.18;42.01
70271;SHT31;57680;54.292;18.598;2022-07-21T08:34:51;32.16;42.33
70271;SHT31;57680;54.292;18.598;2022-07-21T08:37:19;32.22;42.29
70271;SHT31;57680;54.292;18.598;2022-07-21T08:39:45;32.26;42.76
70271;SHT31;57680;54.292;18.598;2022-07-21T08:42:13;32.36;43.23
70271;SHT31;57680;54.292;18.598;2022-07-21T08:44:38;32.39;42.11
70271;SHT31;57680;54.292;18.598;2022-07-21T08:47:04;32.44;41.63
70271;SHT31;57680;54.292;18.598;2022-07-21T08:49:33;32.43;40.75
70271;SHT31;57680;54.292;18.598;2022-07-21T08:51:58;32.69;40.51
70271;SHT31;57680;54.292;18.598;2022-07-21T08:54:24;32.76;40.24
70271;SHT31;57680;54.292;18.598;2022-07-21T08:56:50;32.80;39.94
70271;SHT31;57680;54.292;18.598;2022-07-21T08:59:15;32.97;40.28
70271;SHT31;57680;54.292;18.598;2022-07-21T09:01:41;33.18;40.10
70271;SHT31;57680;54.292;18.598;2022-07-21T09:04:30;33.22;38.98
70271;SHT31;57680;54.292;18.598;2022-07-21T09:07:02;32.80;39.19
70271;SHT31;57680;54.292;18.598;2022-07-21T09:09:29;32.74;40.67
70271;SHT31;57680;54.292;18.598;2022-07-21T09:11:55;32.83;40.27
70271;SHT31;57680;54.292;18.598;2022-07-21T09:14:23;32.91;40.62
70271;SHT31;57680;54.292;18.598;2022-07-21T09:16:55;32.96;40.04
70271;SHT31;57680;54.292;18.598;2022-07-21T09:19:32;32.93;39.46
70271;SHT31;57680;54.292;18.598;2022-07-21T09:22:03;32.90;40.18
70271;SHT31;57680;54.292;18.598;2022-07-21T09:24:35;32.90;39.11
70271;SHT31;57680;54.292;18.598;2022-07-21T09:29:39;32.96;39.41
70271;SHT31;57680;54.292;18.598;2022-07-21T09:37:26;33.06;38.72
70271;SHT31;57680;54.292;18.598;2022-07-21T09:40:05;33.18;38.89
70271;SHT31;57680;54.292;18.598;2022-07-21T09:42:39;33.22;39.06
70271;SHT31;57680;54.292;18.598;2022-07-21T09:45:07;33.21;39.23
70271;SHT31;57680;54.292;18.598;2022-07-21T09:47:35;33.07;39.21
70271;SHT31;57680;54.292;18.598;2022-07-21T09:50:03;33.24;38.90
70271;SHT31;57680;54.292;18.598;2022-07-21T09:52:36;33.42;39.05
70271;SHT31;57680;54.292;18.598;2022-07-21T09:55:10;33.37;38.75
70271;SHT31;57680;54.292;18.598;2022-07-21T09:57:36;33.22;38.67
70271;SHT31;57680;54.292;18.598;2022-07-21T10:00:07;33.25;38.94
70271;SHT31;57680;54.292;18.598;2022-07-21T10:02:35;33.11;37.56
70271;SHT31;57680;54.292;18.598;2022-07-21T10:07:32;32.77;38.74
70271;SHT31;57680;54.292;18.598;2022-07-21T10:09:59;32.74;39.84
70271;SHT31;57680;54.292;18.598;2022-07-21T10:12:26;32.88;38.72
70271;SHT31;57680;54.292;18.598;2022-07-21T10:14:52;33.00;38.23
70271;SHT31;57680;54.292;18.598;2022-07-21T10:17:20;33.03;38.97
70271;SHT31;57680;54.292;18.598;2022-07-21T10:25:24;33.32;38.63
70271;SHT31;57680;54.292;18.598;2022-07-21T10:30:48;33.31;37.46
70271;SHT31;57680;54.292;18.598;2022-07-21T10:33:17;33.51;38.37
70271;SHT31;57680;54.292;18.598;2022-07-21T10:35:53;33.85;38.54
70271;SHT31;57680;54.292;18.598;2022-07-21T10:38:29;34.19;37.78
70271;SHT31;57680;54.292;18.598;2022-07-21T10:40:56;34.40;36.82
70271;SHT31;57680;54.292;18.598;2022-07-21T10:45:51;34.35;36.21
70271;SHT31;57680;54.292;18.598;2022-07-21T10:51:03;33.90;36.32
70271;SHT31;57680;54.292;18.598;2022-07-21T10:53:28;34.08;36.50
70271;SHT31;57680;54.292;18.598;2022-07-21T10:55:55;34.39;37.23
70271;SHT31;57680;54.292;18.598;2022-07-21T11:03:38;34.72;35.16
70271;SHT31;57680;54.292;18.598;2022-07-21T11:06:16;34.32;35.58
70271;SHT31;57680;54.292;18.598;2022-07-21T11:08:45;34.37;35.80
70271;SHT31;57680;54.292;18.598;2022-07-21T11:11:19;34.46;35.62
70271;SHT31;57680;54.292;18.598;2022-07-21T11:14:17;34.39;35.63
70271;SHT31;57680;54.292;18.598;2022-07-21T11:19:43;34.15;36.02
70271;SHT31;57680;54.292;18.598;2022-07-21T11:22:16;34.15;35.91
70271;SHT31;57680;54.292;18.598;2022-07-21T11:24:44;34.24;36.04
70271;SHT31;57680;54.292;18.598;2022-07-21T11:27:13;34.26;36.26
70271;SHT31;57680;54.292;18.598;2022-07-21T11:29:41;34.23;35.85
70271;SHT31;57680;54.292;18.598;2022-07-21T11:32:07;34.16;35.83
70271;SHT31;57680;54.292;18.598;2022-07-21T11:34:57;34.12;35.54
70271;SHT31;57680;54.292;18.598;2022-07-21T11:37:39;34.23;36.34
70271;SHT31;57680;54.292;18.598;2022-07-21T11:40:11;34.36;36.55
70271;SHT31;57680;54.292;18.598;2022-07-21T11:42:41;34.48;36.02
70271;SHT31;57680;54.292;18.598;2022-07-21T11:45:07;34.70;35.38
70271;SHT31;57680;54.292;18.598;2022-07-21T11:47:33;34.88;35.24
70271;SHT31;57680;54.292;18.598;2022-07-21T11:50:02;34.99;34.77
70271;SHT31;57680;54.292;18.598;2022-07-21T11:52:31;35.22;34.96
70271;SHT31;57680;54.292;18.598;2022-07-21T11:54:59;35.47;33.70
70271;SHT31;57680;54.292;18.598;2022-07-21T11:57:25;35.39;34.18
70271;SHT31;57680;54.292;18.598;2022-07-21T11:59:53;35.25;34.50
70271;SHT31;57680;54.292;18.598;2022-07-21T12:02:21;35.17;33.07
70271;SHT31;57680;54.292;18.598;2022-07-21T12:04:58;35.29;33.71
70271;SHT31;57680;54.292;18.598;2022-07-21T12:10:42;34.81;34.12
70271;SHT31;57680;54.292;18.598;2022-07-21T12:12:45;34.71;35.28
70271;SHT31;57680;54.292;18.598;2022-07-21T12:17:52;35.24;33.66
70271;SHT31;57680;54.292;18.598;2022-07-21T12:20:32;35.14;33.67
70271;SHT31;57680;54.292;18.598;2022-07-21T12:23:01;34.91;32.65
70271;SHT31;57680;54.292;18.598;2022-07-21T12:25:39;34.56;33.47
70271;SHT31;57680;54.292;18.598;2022-07-21T12:28:06;34.57;32.96
70271;SHT31;57680;54.292;18.598;2022-07-21T12:33:29;34.68;33.77
70271;SHT31;57680;54.292;18.598;2022-07-21T12:36:03;34.92;33.47
70271;SHT31;57680;54.292;18.598;2022-07-21T12:38:44;35.12;33.57
70271;SHT31;57680;54.292;18.598;2022-07-21T12:41:15;35.31;33.97
70271;SHT31;57680;54.292;18.598;2022-07-21T12:43:41;35.36;33.07
70271;SHT31;57680;54.292;18.598;2022-07-21T12:46:13;35.55;33.73
70271;SHT31;57680;54.292;18.598;2022-07-21T12:48:40;35.39;34.25
70271;SHT31;57680;54.292;18.598;2022-07-21T12:51:20;35.45;33.83
70271;SHT31;57680;54.292;18.598;2022-07-21T12:53:53;35.35;32.93
70271;SHT31;57680;54.292;18.598;2022-07-21T12:56:24;35.35;32.71
70271;SHT31;57680;54.292;18.598;2022-07-21T12:58:51;35.41;32.10
70271;SHT31;57680;54.292;18.598;2022-07-21T13:01:18;35.43;32.91
70271;SHT31;57680;54.292;18.598;2022-07-21T13:03:45;35.49;32.43
70271;SHT31;57680;54.292;18.598;2022-07-21T13:06:10;35.43;32.60
70271;SHT31;57680;54.292;18.598;2022-07-21T13:08:39;35.52;34.39
70271;SHT31;57680;54.292;18.598;2022-07-21T13:11:05;35.45;34.42
70271;SHT31;57680;54.292;18.598;2022-07-21T13:13:31;35.46;32.83
70271;SHT31;57680;54.292;18.598;2022-07-21T13:15:58;35.28;32.96
70271;SHT31;57680;54.292;18.598;2022-07-21T13:18:24;35.09;32.23
70271;SHT31;57680;54.292;18.598;2022-07-21T13:20:51;34.98;34.08
70271;SHT31;57680;54.292;18.598;2022-07-21T13:23:17;35.02;33.51
70271;SHT31;57680;54.292;18.598;2022-07-21T13:25:43;34.97;33.63
70271;SHT31;57680;54.292;18.598;2022-07-21T13:28:09;34.97;33.43
70271;SHT31;57680;54.292;18.598;2022-07-21T13:30:34;34.88;33.47
70271;SHT31;57680;54.292;18.598;2022-07-21T13:33:00;34.84;34.26
70271;SHT31;57680;54.292;18.598;2022-07-21T13:35:25;34.87;33.98
70271;SHT31;57680;54.292;18.598;2022-07-21T13:37:51;34.78;33.69
70271;SHT31;57680;54.292;18.598;2022-07-21T13:40:17;34.67;33.57
70271;SHT31;57680;54.292;18.598;2022-07-21T13:42:42;34.71;33.94
70271;SHT31;57680;54.292;18.598;2022-07-21T13:45:08;34.70;34.35
70271;SHT31;57680;54.292;18.598;2022-07-21T13:47:36;34.68;34.52
70271;SHT31;57680;54.292;18.598;2022-07-21T13:50:03;34.67;34.70
70271;SHT31;57680;54.292;18.598;2022-07-21T13:52:29;34.68;34.11
70271;SHT31;57680;54.292;18.598;2022-07-21T13:54:56;34.68;34.80
70271;SHT31;57680;54.292;18.598;2022-07-21T13:57:22;34.70;35.10
70271;SHT31;57680;54.292;18.598;2022-07-21T13:59:47;34.76;34.77
70271;SHT31;57680;54.292;18.598;2022-07-21T14:02:13;34.74;34.46
70271;SHT31;57680;54.292;18.598;2022-07-21T14:04:38;34.68;34.09
70271;SHT31;57680;54.292;18.598;2022-07-21T14:07:04;34.61;33.83
70271;SHT31;57680;54.292;18.598;2022-07-21T14:09:29;34.61;34.82
70271;SHT31;57680;54.292;18.598;2022-07-21T14:11:55;34.61;34.98
70271;SHT31;57680;54.292;18.598;2022-07-21T14:14:22;34.67;34.60
70271;SHT31;57680;54.292;18.598;2022-07-21T14:16:51;34.58;33.98
70271;SHT31;57680;54.292;18.598;2022-07-21T14:19:18;34.47;34.18
70271;SHT31;57680;54.292;18.598;2022-07-21T14:21:44;34.46;34.84
70271;SHT31;57680;54.292;18.598;2022-07-21T14:24:09;34.50;34.60
70271;SHT31;57680;54.292;18.598;2022-07-21T14:26:54;34.54;34.59
70271;SHT31;57680;54.292;18.598;2022-07-21T14:29:19;34.53;34.52
70271;SHT31;57680;54.292;18.598;2022-07-21T14:31:45;34.60;34.63
70271;SHT31;57680;54.292;18.598;2022-07-21T14:34:11;34.61;35.07
70271;SHT31;57680;54.292;18.598;2022-07-21T14:36:37;34.57;34.41
70271;SHT31;57680;54.292;18.598;2022-07-21T14:39:03;34.51;34.77
70271;SHT31;57680;54.292;18.598;2022-07-21T14:41:28;34.41;34.40
70271;SHT31;57680;54.292;18.598;2022-07-21T14:43:54;34.40;34.79
70271;SHT31;57680;54.292;18.598;2022-07-21T14:46:20;34.37;34.95
70271;SHT31;57680;54.292;18.598;2022-07-21T14:48:45;34.24;34.78
70271;SHT31;57680;54.292;18.598;2022-07-21T14:51:11;34.13;35.27
70271;SHT31;57680;54.292;18.598;2022-07-21T14:53:36;34.12;35.72
70271;SHT31;57680;54.292;18.598;2022-07-21T14:56:02;34.08;35.64
70271;SHT31;57680;54.292;18.598;2022-07-21T14:58:28;34.02;35.86
70271;SHT31;57680;54.292;18.598;2022-07-21T15:00:53;33.93;35.56
70271;SHT31;57680;54.292;18.598;2022-07-21T15:03:19;33.90;35.40
70271;SHT31;57680;54.292;18.598;2022-07-21T15:05:44;33.86;35.86
70271;SHT31;57680;54.292;18.598;2022-07-21T15:08:10;33.70;36.89
70271;SHT31;57680;54.292;18.598;2022-07-21T15:10:37;33.59;37.21
70271;SHT31;57680;54.292;18.598;2022-07-21T15:13:03;33.38;37.63
70271;SHT31;57680;54.292;18.598;2022-07-21T15:15:28;33.22;37.79
70271;SHT31;57680;54.292;18.598;2022-07-21T15:17:54;33.14;38.22
70271;SHT31;57680;54.292;18.598;2022-07-21T15:20:19;33.03;38.46
70271;SHT31;57680;54.292;18.598;2022-07-21T15:22:45;32.90;37.47
70271;SHT31;57680;54.292;18.598;2022-07-21T15:25:11;32.83;38.24
70271;SHT31;57680;54.292;18.598;2022-07-21T15:27:40;32.76;38.29
70271;SHT31;57680;54.292;18.598;2022-07-21T15:30:09;32.62;38.54
70271;SHT31;57680;54.292;18.598;2022-07-21T15:32:35;32.53;38.52
70271;SHT31;57680;54.292;18.598;2022-07-21T15:35:01;32.49;38.26
70271;SHT31;57680;54.292;18.598;2022-07-21T15:37:26;32.42;37.98
70271;SHT31;57680;54.292;18.598;2022-07-21T15:39:53;32.37;38.98
70271;SHT31;57680;54.292;18.598;2022-07-21T15:42:18;32.40;38.80
70271;SHT31;57680;54.292;18.598;2022-07-21T15:44:44;32.44;38.12
70271;SHT31;57680;54.292;18.598;2022-07-21T15:47:10;32.33;39.40
70271;SHT31;57680;54.292;18.598;2022-07-21T15:49:35;32.31;39.22
70271;SHT31;57680;54.292;18.598;2022-07-21T15:52:01;32.23;39.11
70271;SHT31;57680;54.292;18.598;2022-07-21T15:54:28;32.21;39.80
70271;SHT31;57680;54.292;18.598;2022-07-21T15:56:54;32.16;39.91